Time;durP1;ratioP1;P1;durP2;ratioP2;P2;SDS_P1;SDS_P2;PMS_P1;PMS_P2;Temp;Humidity;BMP_temperature;BMP_pressure;BME280_temperature;BME280_humidity;BME280_pressure;Samples;Min_cycle;Max_cycle;Signal;HPM_P1;HPM_P2
2022/12/25 00:01:13;;;;;;;15.27;6.37;;;;;;;5.11;98.16;100875.72;5054523;28;20201;-81
2022/12/25 00:03:40;;;;;;;19.37;7.60;;;;;;;5.04;98.36;100871.59;5055025;28;20754;-81
2022/12/25 00:06:07;;;;;;;14.57;7.17;;;;;;;4.98;98.04;100870.97;5055120;28;20197;-80
2022/12/25 00:08:33;;;;;;;14.50;6.77;;;;;;;4.92;98.11;100865.91;5055331;28;20209;-79
2022/12/25 00:11:01;;;;;;;15.93;7.63;;;;;;;4.84;97.94;100869.66;5055797;28;20221;-81
2022/12/25 00:13:28;;;;;;;19.30;7.93;;;;;;;4.80;97.95;100864.59;5043717;28;20233;-81
2022/12/25 00:15:55;;;;;;;16.47;7.67;;;;;;;4.76;98.21;100868.25;5054988;28;20221;-80
2022/12/25 00:18:24;;;;;;;18.87;7.47;;;;;;;4.72;98.16;100871.91;5055100;28;20217;-80
2022/12/25 00:20:58;;;;;;;15.13;6.70;;;;;;;4.69;98.12;100872.88;5054119;28;20205;-80
2022/12/25 00:23:28;;;;;;;21.60;8.00;;;;;;;4.65;98.31;100873.91;5055023;28;20233;-80
2022/12/25 00:25:54;;;;;;;19.17;7.03;;;;;;;4.62;98.51;100875.78;5054751;28;20757;-80
2022/12/25 00:28:23;;;;;;;16.07;7.13;;;;;;;4.59;98.74;100865.34;5036641;28;20202;-80
2022/12/25 00:30:49;;;;;;;21.23;7.43;;;;;;;4.58;98.72;100872.38;5054261;28;20205;-81
2022/12/25 00:33:16;;;;;;;12.47;6.20;;;;;;;4.56;99.13;100868.94;5054618;28;20240;-80
2022/12/25 00:35:44;;;;;;;13.97;6.87;;;;;;;4.55;99.30;100875.13;5054750;28;20305;-81
2022/12/25 00:38:10;;;;;;;17.53;7.17;;;;;;;4.54;99.02;100879.53;5054821;28;20817;-81
2022/12/25 00:40:42;;;;;;;17.40;7.80;;;;;;;4.54;99.47;100899.78;5054968;28;20193;-80
2022/12/25 00:43:09;;;;;;;15.70;7.83;;;;;;;4.53;100.00;100898.06;5045527;28;20223;-80
2022/12/25 00:45:36;;;;;;;23.13;8.90;;;;;;;4.52;100.00;100899.84;5034589;28;20214;-80
2022/12/25 00:48:02;;;;;;;23.03;7.10;;;;;;;4.55;100.00;100888.31;5034893;28;20210;-80
2022/12/25 00:50:29;;;;;;;18.73;7.40;;;;;;;4.55;100.00;100890.97;5034264;28;20210;-79
2022/12/25 00:52:56;;;;;;;19.57;7.13;;;;;;;4.50;100.00;100896.38;5033852;28;20226;-80
2022/12/25 00:55:23;;;;;;;20.03;7.27;;;;;;;4.44;100.00;100896.63;5043075;28;20216;-80
2022/12/25 00:57:49;;;;;;;19.97;7.07;;;;;;;4.45;100.00;100913.31;5047642;28;20234;-80
2022/12/25 01:00:16;;;;;;;20.60;6.67;;;;;;;4.47;100.00;100909.69;5032971;28;20217;-81
2022/12/25 01:02:43;;;;;;;21.00;7.03;;;;;;;4.56;100.00;100912.91;5033160;28;20206;-81
2022/12/25 01:05:09;;;;;;;18.93;7.07;;;;;;;4.65;100.00;100907.34;5032395;28;20231;-81
2022/12/25 01:07:36;;;;;;;21.23;7.13;;;;;;;4.73;100.00;100910.56;5032321;28;20339;-81
2022/12/25 01:10:22;;;;;;;26.53;7.87;;;;;;;4.80;100.00;100915.56;5033190;28;20217;-81
2022/12/25 01:12:50;;;;;;;25.43;7.37;;;;;;;4.86;100.00;100907.41;5032735;28;20217;-81
2022/12/25 01:15:16;;;;;;;25.17;7.37;;;;;;;4.91;100.00;100907.25;5032861;28;20214;-80
2022/12/25 01:17:43;;;;;;;25.60;6.90;;;;;;;4.96;100.00;100912.38;5032433;28;20214;-81
2022/12/25 01:20:11;;;;;;;23.97;7.30;;;;;;;5.00;100.00;100914.88;5040946;28;20204;-81
2022/12/25 01:22:37;;;;;;;23.33;6.83;;;;;;;5.04;100.00;100910.31;5072522;28;20215;-81
2022/12/25 01:25:06;;;;;;;22.43;7.17;;;;;;;5.10;100.00;100899.53;5062487;28;20626;-81
2022/12/25 01:27:33;;;;;;;24.23;7.10;;;;;;;5.13;100.00;100900.28;5052051;28;20225;-81
2022/12/25 01:29:59;;;;;;;19.90;7.10;;;;;;;5.18;100.00;100902.78;5067833;28;20204;-82
2022/12/25 01:32:26;;;;;;;23.73;7.10;;;;;;;5.21;100.00;100897.34;5070010;28;20237;-81
2022/12/25 01:34:53;;;;;;;24.57;7.40;;;;;;;5.25;100.00;100888.41;5072406;28;20312;-81
2022/12/25 01:37:19;;;;;;;21.20;7.03;;;;;;;5.30;100.00;100894.38;5057264;28;20213;-82
2022/12/25 01:39:46;;;;;;;22.07;7.37;;;;;;;5.34;100.00;100897.78;5052623;28;20548;-81
2022/12/25 01:42:17;;;;;;;21.30;6.37;;;;;;;5.36;100.00;100894.16;5059055;28;20197;-81
2022/12/25 01:45:20;;;;;;;17.13;6.23;;;;;;;5.42;100.00;100900.97;5068296;28;20589;-81
2022/12/25 01:47:47;;;;;;;18.13;6.63;;;;;;;5.44;100.00;100896.50;5051158;28;20204;-81
2022/12/25 01:50:13;;;;;;;15.83;5.37;;;;;;;5.43;100.00;100900.91;5048988;28;20233;-82
2022/12/25 01:52:40;;;;;;;14.83;5.23;;;;;;;5.45;100.00;100907.00;5053113;28;20743;-82
2022/12/25 01:55:08;;;;;;;17.00;5.43;;;;;;;5.41;100.00;100900.09;5052364;28;20695;-81
2022/12/25 01:57:38;;;;;;;19.70;5.50;;;;;;;5.38;100.00;100894.94;5052289;28;20245;-81
2022/12/25 02:00:07;;;;;;;17.10;5.47;;;;;;;5.35;100.00;100897.72;5052629;28;20201;-81
2022/12/25 02:02:35;;;;;;;15.87;5.90;;;;;;;5.31;100.00;100893.47;5052171;28;20255;-81
2022/12/25 02:05:04;;;;;;;17.17;5.77;;;;;;;5.28;100.00;100895.34;5052423;28;20228;-82
2022/12/25 02:07:34;;;;;;;16.97;6.23;;;;;;;5.24;100.00;100897.25;5052210;28;20793;-82
2022/12/25 02:10:01;;;;;;;21.40;6.10;;;;;;;5.20;100.00;100901.78;5052911;28;20201;-81
2022/12/25 02:12:32;;;;;;;17.93;5.80;;;;;;;5.17;100.00;100907.19;5052147;28;20230;-82
2022/12/25 02:15:03;;;;;;;17.10;6.00;;;;;;;5.14;100.00;100922.28;5052496;28;20217;-82
2022/12/25 02:17:38;;;;;;;14.50;6.00;;;;;;;5.11;100.00;100925.88;5052322;28;20687;-82
2022/12/25 02:20:47;;;;;;;15.87;5.53;;;;;;;5.03;100.00;100919.16;5052458;28;20185;-79
2022/12/25 02:23:47;;;;;;;13.77;5.53;;;;;;;4.94;100.00;100919.50;5032018;28;20225;-81
2022/12/25 02:26:30;;;;;;;16.43;5.43;;;;;;;4.85;100.00;100924.16;5048617;28;20201;-81
2022/12/25 02:29:03;;;;;;;14.27;5.53;;;;;;;4.80;100.00;100912.94;5034273;28;20206;-81
2022/12/25 02:31:37;;;;;;;16.63;6.07;;;;;;;4.77;100.00;100910.41;5031853;28;20194;-81
2022/12/25 02:34:11;;;;;;;17.47;5.90;;;;;;;4.76;100.00;100902.53;5041611;28;20710;-82
2022/12/25 02:36:44;;;;;;;17.53;5.87;;;;;;;4.76;100.00;100921.88;5047320;28;20219;-82
2022/12/25 02:42:08;;;;;;;15.30;5.47;;;;;;;4.74;100.00;100926.34;5044286;28;20241;-82
2022/12/25 03:07:04;;;;;;;15.27;5.37;;;;;;;4.80;100.00;100906.81;5040396;28;20209;-85
2022/12/25 03:12:29;;;;;;;18.83;6.87;;;;;;;4.82;100.00;100920.81;5058898;28;20295;-84
2022/12/25 03:17:43;;;;;;;14.67;6.17;;;;;;;4.89;100.00;100903.81;5054471;28;20229;-84
2022/12/25 03:28:24;;;;;;;15.37;5.37;;;;;;;5.04;100.00;100915.59;5052695;28;20225;-83
2022/12/25 03:31:12;;;;;;;18.63;6.37;;;;;;;5.07;100.00;100910.22;5052620;28;20217;-83
2022/12/25 03:36:42;;;;;;;20.80;6.70;;;;;;;5.14;100.00;100919.63;5046916;28;20198;-84
2022/12/25 04:38:00;;;;;;;18.53;6.00;;;;;;;5.69;100.00;100873.50;5043219;28;20205;-83
2022/12/25 04:40:28;;;;;;;14.37;5.60;;;;;;;5.72;100.00;100864.59;5043306;28;20212;-83
2022/12/25 04:42:54;;;;;;;18.97;5.43;;;;;;;5.76;100.00;100856.47;5044829;28;20225;-83
2022/12/25 04:45:21;;;;;;;19.90;5.90;;;;;;;5.81;100.00;100870.34;5053148;28;20205;-83
2022/12/25 04:47:47;;;;;;;18.10;5.40;;;;;;;5.85;100.00;100866.66;5038940;28;20225;-83
2022/12/25 04:50:14;;;;;;;15.90;6.67;;;;;;;5.89;100.00;100872.72;5049305;28;20198;-83
2022/12/25 04:52:41;;;;;;;18.40;6.27;;;;;;;5.92;100.00;100865.50;5050825;28;20225;-82
2022/12/25 04:55:10;;;;;;;15.67;5.43;;;;;;;5.96;100.00;100857.47;5053682;28;20209;-83
2022/12/25 04:57:38;;;;;;;22.37;6.57;;;;;;;6.01;100.00;100848.44;5050394;28;20216;-83
2022/12/25 05:00:06;;;;;;;16.87;5.70;;;;;;;6.04;100.00;100842.16;5048323;28;20664;-83
2022/12/25 05:02:33;;;;;;;14.93;5.57;;;;;;;6.08;100.00;100855.19;5045195;28;20199;-83
2022/12/25 05:04:59;;;;;;;18.27;6.10;;;;;;;6.13;100.00;100853.19;5051551;28;20226;-83
2022/12/25 05:07:26;;;;;;;11.53;4.80;;;;;;;6.16;100.00;100842.50;5046013;28;20205;-83
2022/12/25 05:09:52;;;;;;;15.70;5.73;;;;;;;6.19;100.00;100842.38;5045013;28;20236;-83
2022/12/25 05:12:18;;;;;;;14.23;5.47;;;;;;;6.24;100.00;100843.06;5046205;28;20241;-84
2022/12/25 05:14:46;;;;;;;21.87;6.53;;;;;;;6.28;100.00;100846.41;5045657;28;20233;-84
2022/12/25 05:17:13;;;;;;;17.50;6.00;;;;;;;6.31;100.00;100853.34;5039895;28;20673;-83
2022/12/25 05:19:39;;;;;;;10.93;5.67;;;;;;;6.32;100.00;100847.13;5053631;28;20209;-83
2022/12/25 05:22:06;;;;;;;16.67;5.40;;;;;;;6.34;100.00;100843.50;5052033;28;20210;-83
2022/12/25 05:24:33;;;;;;;23.80;6.43;;;;;;;6.37;100.00;100839.88;5048626;28;20228;-84
2022/12/25 05:26:59;;;;;;;14.37;4.83;;;;;;;6.39;100.00;100845.97;5049407;28;20212;-83
2022/12/25 05:29:26;;;;;;;13.83;5.33;;;;;;;6.41;100.00;100839.69;5045266;28;20198;-82
2022/12/25 05:31:53;;;;;;;13.57;5.60;;;;;;;6.45;100.00;100851.00;5046894;28;20217;-83
2022/12/25 05:34:20;;;;;;;14.60;5.70;;;;;;;6.49;100.00;100836.69;5042335;28;20569;-82
2022/12/25 05:36:46;;;;;;;13.77;5.40;;;;;;;6.51;100.00;100842.78;5053237;28;20230;-82
2022/12/25 05:39:13;;;;;;;17.60;5.47;;;;;;;6.55;100.00;100844.38;5053551;28;20217;-82
2022/12/25 05:41:40;;;;;;;16.17;5.63;;;;;;;6.57;100.00;100842.50;5051109;28;20213;-82
2022/12/25 05:44:06;;;;;;;24.10;6.23;;;;;;;6.58;100.00;100839.81;5055524;28;20218;-82
2022/12/25 05:46:33;;;;;;;13.27;5.50;;;;;;;6.59;100.00;100836.22;5056649;28;20209;-82
2022/12/25 05:49:01;;;;;;;16.40;6.00;;;;;;;6.62;100.00;100829.94;5048912;28;20213;-82
2022/12/25 05:51:27;;;;;;;16.07;4.63;;;;;;;6.63;100.00;100821.06;5048000;28;20297;-83
2022/12/25 05:53:53;;;;;;;15.07;5.47;;;;;;;6.66;100.00;100820.94;5044903;28;20256;-83
2022/12/25 05:56:20;;;;;;;15.17;5.23;;;;;;;6.68;100.00;100810.28;5052101;28;20214;-83
2022/12/25 05:58:46;;;;;;;17.77;4.80;;;;;;;6.70;100.00;100819.00;5053525;28;20213;-82
2022/12/25 06:01:15;;;;;;;16.70;5.43;;;;;;;6.71;100.00;100826.03;5049299;28;20352;-82
2022/12/25 06:03:41;;;;;;;15.03;4.90;;;;;;;6.69;100.00;100826.09;5040135;28;20226;-83
2022/12/25 06:06:11;;;;;;;21.53;5.10;;;;;;;6.72;100.00;100833.03;5057199;28;20679;-83
2022/12/25 06:08:37;;;;;;;13.23;5.43;;;;;;;6.74;100.00;100820.59;5045377;28;20725;-82
2022/12/25 06:11:04;;;;;;;12.47;5.13;;;;;;;6.78;100.00;100827.47;5054945;28;20213;-83
2022/12/25 06:13:31;;;;;;;14.47;4.87;;;;;;;6.78;100.00;100823.03;5055049;28;20234;-82
2022/12/25 06:15:58;;;;;;;18.00;4.67;;;;;;;6.82;100.00;100829.03;5056761;28;20280;-83
2022/12/25 06:18:25;;;;;;;14.10;4.53;;;;;;;6.83;100.00;100813.09;5050493;28;20240;-82
2022/12/25 06:20:52;;;;;;;16.60;4.63;;;;;;;6.84;100.00;100814.81;5036901;28;20210;-82
2022/12/25 06:23:20;;;;;;;13.30;4.10;;;;;;;6.85;100.00;100815.66;5051020;28;20225;-83
2022/12/25 06:25:46;;;;;;;13.97;4.43;;;;;;;6.87;100.00;100816.47;5046434;28;20206;-83
2022/12/25 06:28:13;;;;;;;12.87;5.13;;;;;;;6.85;100.00;100819.16;5053699;28;20206;-83
2022/12/25 06:30:39;;;;;;;16.20;4.47;;;;;;;6.86;100.00;100828.84;5046035;28;20206;-83
2022/12/25 06:33:06;;;;;;;10.13;4.00;;;;;;;6.87;100.00;100827.91;5052215;28;20229;-84
2022/12/25 06:35:32;;;;;;;15.47;4.50;;;;;;;6.88;100.00;100826.97;5043888;28;20201;-83
2022/12/25 06:37:59;;;;;;;10.70;3.97;;;;;;;6.90;100.00;100821.63;5045342;28;20237;-83
2022/12/25 06:40:26;;;;;;;11.83;4.47;;;;;;;6.91;100.00;100820.69;5056825;28;20210;-83
2022/12/25 06:42:53;;;;;;;14.47;4.50;;;;;;;6.92;100.00;100815.34;5047201;28;20571;-83
2022/12/25 06:45:19;;;;;;;14.00;4.40;;;;;;;6.93;100.00;100810.91;5054852;28;20296;-84
2022/12/25 06:47:46;;;;;;;13.03;5.10;;;;;;;6.93;100.00;100814.41;5047320;28;20213;-83
2022/12/25 06:50:12;;;;;;;11.33;4.00;;;;;;;6.92;100.00;100817.97;5051596;28;20210;-84
2022/12/25 06:52:39;;;;;;;12.63;4.20;;;;;;;6.91;100.00;100810.09;5043309;28;20212;-83
2022/12/25 06:55:06;;;;;;;14.57;5.10;;;;;;;6.89;100.00;100812.81;5054032;28;20228;-83
2022/12/25 06:57:34;;;;;;;12.77;4.63;;;;;;;6.89;100.00;100794.28;5052820;28;20200;-82
2022/12/25 07:00:00;;;;;;;17.40;4.73;;;;;;;6.89;100.00;100791.63;5042928;28;20209;-83
2022/12/25 07:02:27;;;;;;;16.33;4.47;;;;;;;6.89;100.00;100786.34;5048592;28;20204;-83
2022/12/25 07:04:54;;;;;;;14.23;4.80;;;;;;;6.89;100.00;100789.00;5041430;28;20214;-83
2022/12/25 07:07:22;;;;;;;19.87;5.13;;;;;;;6.90;100.00;100792.50;5044161;28;20202;-83
2022/12/25 07:09:48;;;;;;;12.43;4.23;;;;;;;6.89;100.00;100791.63;5046606;28;20205;-83
2022/12/25 07:12:16;;;;;;;10.47;4.07;;;;;;;6.90;100.00;100795.16;5045649;28;20201;-83
2022/12/25 07:14:47;;;;;;;12.40;4.53;;;;;;;6.90;100.00;100790.72;5044988;28;20233;-84
2022/12/25 07:17:14;;;;;;;14.30;4.40;;;;;;;6.91;100.00;100795.06;5040338;28;20646;-84
2022/12/25 07:19:40;;;;;;;13.07;4.27;;;;;;;6.93;100.00;100800.31;5045649;28;20209;-84
2022/12/25 07:22:07;;;;;;;12.77;4.70;;;;;;;6.92;100.00;100790.63;5042781;28;20206;-83
2022/12/25 07:24:34;;;;;;;20.07;3.97;;;;;;;6.93;100.00;100795.88;5048470;28;20230;-83
2022/12/25 07:27:00;;;;;;;15.40;5.27;;;;;;;6.93;100.00;100800.31;5045271;28;20210;-83
2022/12/25 07:29:26;;;;;;;12.30;3.97;;;;;;;6.93;100.00;100809.09;5044460;28;20231;-83
2022/12/25 07:31:54;;;;;;;14.87;4.67;;;;;;;6.94;100.00;100810.81;5049740;28;20197;-83
2022/12/25 07:34:21;;;;;;;13.20;4.40;;;;;;;6.94;100.00;100812.63;5038588;28;20597;-83
2022/12/25 07:36:48;;;;;;;12.77;3.73;;;;;;;6.95;100.00;100809.03;5047261;28;20268;-83
2022/12/25 07:39:15;;;;;;;13.33;4.07;;;;;;;6.96;100.00;100806.31;5043753;28;20206;-83
2022/12/25 07:41:41;;;;;;;16.40;3.90;;;;;;;6.96;100.00;100803.69;5050832;28;20214;-84
2022/12/25 07:44:07;;;;;;;11.97;3.33;;;;;;;6.95;100.00;100801.97;5053054;28;20238;-83
2022/12/25 07:46:34;;;;;;;10.87;3.87;;;;;;;6.94;100.00;100792.28;5056987;28;20212;-83
2022/12/25 07:49:02;;;;;;;11.73;3.70;;;;;;;6.94;100.00;100789.66;5050243;28;20213;-82
2022/12/25 07:51:29;;;;;;;11.33;3.87;;;;;;;6.94;100.00;100788.78;5050818;28;20205;-82
2022/12/25 07:53:55;;;;;;;9.70;3.40;;;;;;;6.93;100.00;100782.63;5049686;28;20241;-84
2022/12/25 07:56:22;;;;;;;14.27;3.57;;;;;;;6.92;100.00;100780.91;5056311;28;20213;-83
2022/12/25 07:58:49;;;;;;;10.63;3.90;;;;;;;6.91;100.00;100787.13;5059637;28;20202;-83
2022/12/25 08:01:18;;;;;;;13.73;3.63;;;;;;;6.90;100.00;100774.81;5053555;28;20231;-83
2022/12/25 08:03:49;;;;;;;9.83;3.80;;;;;;;6.89;100.00;100775.75;5057145;28;20221;-83
2022/12/25 08:06:18;;;;;;;8.57;3.13;;;;;;;6.89;100.00;100770.47;5052025;28;20193;-82
2022/12/25 08:08:44;;;;;;;11.43;3.80;;;;;;;6.89;100.00;100759.00;5048858;28;20567;-82
2022/12/25 08:11:11;;;;;;;9.63;3.50;;;;;;;6.88;100.00;100752.84;5052485;28;20656;-82
2022/12/25 08:13:38;;;;;;;13.90;4.10;;;;;;;6.88;100.00;100739.63;5058492;28;20240;-82
2022/12/25 08:16:07;;;;;;;13.20;4.27;;;;;;;6.89;100.00;100741.34;5050904;28;20698;-82
2022/12/25 08:18:35;;;;;;;19.20;4.30;;;;;;;6.92;100.00;100724.44;5050753;28;20209;-81
2022/12/25 08:21:03;;;;;;;9.23;4.13;;;;;;;6.95;100.00;100743.72;5043650;28;20679;-82
2022/12/25 08:23:33;;;;;;;15.23;4.70;;;;;;;7.00;100.00;100745.25;5053114;28;20222;-82
2022/12/25 08:26:00;;;;;;;12.43;4.80;;;;;;;7.04;100.00;100738.88;5051860;28;20293;-82
2022/12/25 08:28:26;;;;;;;14.57;4.50;;;;;;;7.08;100.00;100748.41;5052761;28;20560;-81
2022/12/25 08:30:52;;;;;;;13.10;5.07;;;;;;;7.12;100.00;100760.59;5050549;28;20205;-81
2022/12/25 08:33:19;;;;;;;8.43;4.27;;;;;;;7.16;100.00;100767.47;5053903;28;20241;-81
2022/12/25 08:35:45;;;;;;;13.47;4.57;;;;;;;7.24;100.00;100770.59;5054437;28;20201;-82
2022/12/25 08:38:12;;;;;;;9.83;5.20;;;;;;;7.28;100.00;100766.88;5049216;28;20647;-83
2022/12/25 08:40:40;;;;;;;16.00;5.13;;;;;;;7.34;100.00;100766.59;5052135;28;20593;-83
2022/12/25 08:43:06;;;;;;;11.57;4.70;;;;;;;7.38;100.00;100768.13;5050883;28;20205;-83
2022/12/25 08:45:33;;;;;;;15.87;5.63;;;;;;;7.43;100.00;100771.44;5045033;28;20213;-82
2022/12/25 08:47:59;;;;;;;16.23;5.00;;;;;;;7.47;100.00;100778.31;5051147;28;20209;-82
2022/12/25 08:50:26;;;;;;;13.17;4.63;;;;;;;7.51;100.00;100777.22;5047396;28;20206;-82
2022/12/25 08:52:52;;;;;;;17.93;5.87;;;;;;;7.55;100.00;100770.81;5054450;28;20212;-82
2022/12/25 08:55:19;;;;;;;17.37;6.37;;;;;;;7.57;100.00;100765.44;5046968;28;20241;-82
2022/12/25 08:57:46;;;;;;;8.80;4.87;;;;;;;7.60;100.00;100770.59;5047068;28;20210;-83
2022/12/25 09:00:14;;;;;;;17.37;6.10;;;;;;;7.63;100.00;100770.47;5041572;28;20206;-83
2022/12/25 09:02:40;;;;;;;13.67;5.33;;;;;;;7.65;100.00;100781.84;5046531;28;20217;-83
2022/12/25 09:05:08;;;;;;;12.63;5.63;;;;;;;7.69;100.00;100787.88;5046553;28;20222;-82
2022/12/25 09:07:35;;;;;;;14.40;6.23;;;;;;;7.72;100.00;100785.03;5050156;28;20667;-82
2022/12/25 09:10:01;;;;;;;15.57;6.37;;;;;;;7.74;100.00;100772.56;5043291;28;20206;-83
2022/12/25 09:12:28;;;;;;;10.57;5.20;;;;;;;7.77;100.00;100764.47;5045676;28;20206;-82
2022/12/25 09:14:56;;;;;;;14.17;5.27;;;;;;;7.80;100.00;100759.00;5043669;28;20233;-82
2022/12/25 09:17:22;;;;;;;13.57;5.20;;;;;;;7.83;100.00;100754.41;5039529;28;20206;-83
2022/12/25 09:19:49;;;;;;;14.17;5.03;;;;;;;7.85;100.00;100752.56;5044401;28;20202;-83
2022/12/25 09:22:15;;;;;;;11.50;5.40;;;;;;;7.89;100.00;100753.22;5047231;28;20223;-83
2022/12/25 09:24:42;;;;;;;12.67;5.43;;;;;;;7.91;100.00;100749.56;5044214;28;20230;-82
2022/12/25 09:27:09;;;;;;;13.93;5.60;;;;;;;7.96;100.00;100757.31;5036719;28;20202;-83
2022/12/25 09:29:35;;;;;;;13.37;5.57;;;;;;;7.97;100.00;100766.97;5047781;28;20197;-83
2022/12/25 09:32:03;;;;;;;14.60;5.67;;;;;;;8.00;100.00;100767.69;5044139;28;20242;-83
2022/12/25 09:34:30;;;;;;;14.17;6.30;;;;;;;8.08;100.00;100761.97;5044026;28;20233;-83
2022/12/25 09:36:56;;;;;;;14.53;6.50;;;;;;;8.10;100.00;100778.66;5044109;28;20639;-82
2022/12/25 09:39:23;;;;;;;15.67;6.37;;;;;;;8.11;100.00;100780.38;5042711;28;20244;-82
2022/12/25 09:41:55;;;;;;;19.37;6.60;;;;;;;8.15;100.00;100779.31;5043810;28;20237;-82
2022/12/25 09:44:26;;;;;;;12.03;5.13;;;;;;;8.17;100.00;100777.44;5042651;28;20230;-82
2022/12/25 09:46:55;;;;;;;14.80;5.67;;;;;;;8.20;100.00;100787.91;5044682;28;20201;-82
2022/12/25 09:49:35;;;;;;;13.67;5.77;;;;;;;8.24;100.00;100793.91;5041897;28;20614;-82
2022/12/25 09:52:08;;;;;;;9.67;4.60;;;;;;;8.30;100.00;100785.59;5042202;28;20198;-82
2022/12/25 09:54:41;;;;;;;12.10;7.07;;;;;;;8.32;100.00;100787.28;5043209;28;20317;-82
2022/12/25 09:57:11;;;;;;;13.67;4.43;;;;;;;8.38;100.00;100774.66;5036509;28;20206;-82
2022/12/25 09:59:38;;;;;;;9.20;5.50;;;;;;;8.40;100.00;100773.63;5040558;28;20202;-82
2022/12/25 10:02:35;;;;;;;9.17;4.67;;;;;;;8.43;100.00;100765.47;5055039;28;20205;-83
2022/12/25 10:05:16;;;;;;;6.73;4.13;;;;;;;8.46;100.00;100764.47;5054228;28;20242;-82
2022/12/25 10:07:49;;;;;;;6.73;4.20;;;;;;;8.48;100.00;100767.91;5052029;28;20201;-82
2022/12/25 10:10:30;;;;;;;8.70;4.13;;;;;;;8.48;100.00;100758.16;5049303;28;20211;-81
2022/12/25 10:13:05;;;;;;;8.83;3.67;;;;;;;8.50;100.00;100742.13;5052014;28;20209;-81
2022/12/25 10:15:35;;;;;;;11.77;4.97;;;;;;;8.51;100.00;100725.28;5042485;28;20224;-82
2022/12/25 10:18:31;;;;;;;13.30;4.67;;;;;;;8.54;100.00;100722.47;5054678;28;20217;-81
2022/12/25 10:21:02;;;;;;;10.00;3.97;;;;;;;8.54;100.00;100710.03;5045223;28;20661;-81
2022/12/25 10:23:32;;;;;;;10.47;4.97;;;;;;;8.55;100.00;100703.78;5056345;28;20722;-82
2022/12/25 10:25:59;;;;;;;10.80;4.00;;;;;;;8.56;100.00;100694.91;5063728;28;20277;-81
2022/12/25 10:28:33;;;;;;;9.80;4.23;;;;;;;8.59;100.00;100680.59;5052887;28;20198;-82
2022/12/25 10:31:07;;;;;;;17.90;4.50;;;;;;;8.61;100.00;100678.69;5059042;28;20201;-81
2022/12/25 10:33:34;;;;;;;11.77;4.37;;;;;;;8.61;100.00;100673.38;5059259;28;20233;-82
2022/12/25 10:36:01;;;;;;;10.63;4.60;;;;;;;8.62;100.00;100675.97;5053819;28;20228;-82
2022/12/25 10:38:28;;;;;;;8.60;4.40;;;;;;;8.63;100.00;100675.03;5053282;28;20208;-83
2022/12/25 10:41:05;;;;;;;10.90;4.20;;;;;;;8.65;100.00;100670.47;5050585;28;20213;-82
2022/12/25 10:43:38;;;;;;;7.10;3.90;;;;;;;8.67;100.00;100670.41;5054163;28;20235;-83
2022/12/25 10:46:11;;;;;;;7.80;3.97;;;;;;;8.68;100.00;100674.78;5051762;28;20202;-82
2022/12/25 10:48:42;;;;;;;8.07;3.43;;;;;;;8.72;100.00;100665.72;5044297;28;20210;-82
2022/12/25 10:51:10;;;;;;;7.13;3.70;;;;;;;8.75;100.00;100652.25;5044664;28;20198;-83
2022/12/25 10:53:39;;;;;;;8.13;4.20;;;;;;;8.78;100.00;100659.22;5051440;28;20573;-82
2022/12/25 10:56:15;;;;;;;10.73;4.07;;;;;;;8.81;100.00;100672.28;5054317;28;20245;-81
2022/12/25 10:58:42;;;;;;;7.47;4.10;;;;;;;8.83;100.00;100694.31;5062815;28;20205;-81
2022/12/25 11:01:10;;;;;;;9.00;4.47;;;;;;;8.87;100.00;100693.19;5051975;28;20213;-80
2022/12/25 11:03:39;;;;;;;8.37;3.57;;;;;;;8.89;100.00;100691.31;5058771;28;20240;-80
2022/12/25 11:06:20;;;;;;;9.20;4.00;;;;;;;8.92;100.00;100697.31;5055301;28;20203;-81
2022/12/25 11:08:53;;;;;;;7.10;3.70;;;;;;;8.96;100.00;100696.19;5047762;28;20205;-81
2022/12/25 11:11:20;;;;;;;6.27;3.23;;;;;;;8.98;100.00;100690.78;5053103;28;20201;-81
2022/12/25 11:13:53;;;;;;;8.30;3.47;;;;;;;8.99;100.00;100690.72;5050056;28;20991;-82
2022/12/25 11:16:29;;;;;;;7.70;3.67;;;;;;;9.02;100.00;100689.69;5046196;28;20214;-83
2022/12/25 11:18:57;;;;;;;4.03;3.00;;;;;;;9.02;100.00;100689.69;5046577;28;20217;-81
2022/12/25 11:21:25;;;;;;;6.53;3.27;;;;;;;9.03;100.00;100680.78;5050354;28;20202;-83
2022/12/25 11:23:58;;;;;;;8.47;3.13;;;;;;;9.04;100.00;100672.72;5055021;28;20225;-82
2022/12/25 11:26:26;;;;;;;7.37;2.97;;;;;;;9.04;100.00;100670.06;5050702;28;20679;-82
2022/12/25 11:28:54;;;;;;;6.73;3.13;;;;;;;9.05;100.00;100666.47;5063472;28;20688;-81
2022/12/25 11:31:23;;;;;;;5.87;3.43;;;;;;;9.05;100.00;100658.50;5057327;28;20327;-81
2022/12/25 11:33:54;;;;;;;8.33;3.50;;;;;;;9.07;100.00;100671.69;5049201;28;20230;-82
2022/12/25 11:36:27;;;;;;;7.70;3.30;;;;;;;9.07;100.00;100670.84;5047811;28;20217;-81
2022/12/25 11:38:54;;;;;;;6.17;3.07;;;;;;;9.07;100.00;100660.22;5054495;28;20202;-81
2022/12/25 11:41:30;;;;;;;11.33;4.70;;;;;;;9.08;100.00;100657.47;5054012;28;20202;-81
2022/12/25 11:44:03;;;;;;;10.40;4.40;;;;;;;9.08;100.00;100660.13;5050724;28;20232;-82
2022/12/25 11:46:38;;;;;;;8.53;3.70;;;;;;;9.10;100.00;100649.41;5058446;28;20229;-83
2022/12/25 11:49:07;;;;;;;7.47;3.93;;;;;;;9.10;100.00;100641.44;5065952;28;20197;-81
2022/12/25 11:51:38;;;;;;;8.43;4.10;;;;;;;9.11;100.00;100645.81;5055489;28;20236;-81
2022/12/25 11:54:16;;;;;;;8.60;3.63;;;;;;;9.11;100.00;100645.81;5052178;28;20218;-82
2022/12/25 11:56:44;;;;;;;11.53;4.40;;;;;;;9.12;100.00;100655.50;5053105;28;20210;-81
2022/12/25 11:59:20;;;;;;;6.53;3.60;;;;;;;9.14;100.00;100640.31;5059453;28;20592;-80
2022/12/25 12:01:49;;;;;;;7.97;3.97;;;;;;;9.17;100.00;100626.84;5045745;28;20269;-80
2022/12/25 12:04:21;;;;;;;8.70;3.83;;;;;;;9.15;100.00;100613.66;5050243;28;20264;-80
2022/12/25 12:06:54;;;;;;;5.87;3.90;;;;;;;9.16;100.00;100609.19;5054435;28;20201;-80
2022/12/25 12:09:33;;;;;;;9.67;4.30;;;;;;;9.15;100.00;100604.81;5051029;28;20198;-81
2022/12/25 12:12:11;;;;;;;8.13;3.83;;;;;;;9.16;100.00;100602.06;5049938;28;20274;-80
2022/12/25 12:14:50;;;;;;;8.50;4.50;;;;;;;9.15;100.00;100584.41;5045288;28;20241;-80
2022/12/25 12:17:18;;;;;;;8.43;4.20;;;;;;;9.16;100.00;100585.28;5052373;28;20285;-80
2022/12/25 12:19:44;;;;;;;8.37;4.20;;;;;;;9.16;100.00;100588.78;5044322;28;20269;-80
2022/12/25 12:22:18;;;;;;;7.83;3.73;;;;;;;9.17;100.00;100584.34;5041046;28;20205;-80
2022/12/25 12:24:48;;;;;;;7.90;3.83;;;;;;;9.16;100.00;100575.50;5052964;28;20225;-81
2022/12/25 12:27:29;;;;;;;13.00;4.73;;;;;;;9.16;100.00;100558.69;5051612;28;20201;-80
2022/12/25 12:29:58;;;;;;;8.80;4.87;;;;;;;9.15;100.00;100557.00;5048085;28;20194;-81
2022/12/25 12:32:35;;;;;;;6.70;4.53;;;;;;;9.15;100.00;100554.34;5065551;28;20577;-80
2022/12/25 12:35:09;;;;;;;8.23;4.47;;;;;;;9.15;100.00;100567.63;5043869;28;20228;-80
2022/12/25 12:37:38;;;;;;;11.77;5.00;;;;;;;9.14;100.00;100558.78;5049303;28;20189;-80
2022/12/25 12:40:08;;;;;;;10.07;5.40;;;;;;;9.13;100.00;100550.94;5047004;28;20198;-80
2022/12/25 12:42:45;;;;;;;9.43;4.03;;;;;;;9.13;100.00;100540.31;5051781;28;20212;-80
2022/12/25 12:45:18;;;;;;;10.83;4.43;;;;;;;9.14;100.00;100534.03;5045888;28;20221;-81
2022/12/25 12:47:48;;;;;;;8.93;3.97;;;;;;;9.11;100.00;100527.13;5047531;28;20589;-80
2022/12/25 12:50:34;;;;;;;9.50;4.07;;;;;;;9.11;100.00;100528.91;5056362;28;20205;-80
2022/12/25 12:53:17;;;;;;;6.27;3.50;;;;;;;9.09;100.00;100517.53;5041112;28;20201;-80
2022/12/25 12:55:43;;;;;;;8.30;3.97;;;;;;;9.09;100.00;100520.19;5048757;28;20232;-80
2022/12/25 12:58:26;;;;;;;9.00;4.33;;;;;;;9.07;100.00;100525.56;5054246;28;20210;-80
2022/12/25 13:01:03;;;;;;;10.13;4.53;;;;;;;9.07;100.00;100514.09;5042055;28;20206;-80
2022/12/25 13:03:40;;;;;;;7.13;4.53;;;;;;;9.05;100.00;100507.06;5058649;28;20225;-80
2022/12/25 13:06:14;;;;;;;8.33;3.90;;;;;;;9.04;100.00;100500.03;5042349;28;20201;-80
2022/12/25 13:08:58;;;;;;;7.03;3.70;;;;;;;9.03;100.00;100502.78;5044876;28;20221;-80
2022/12/25 13:11:28;;;;;;;7.30;3.93;;;;;;;9.01;100.00;100508.19;5051850;28;20201;-81